Airfield :
LOGIN :

Register | Disclaimer

   EN    FR    IT 

 










Legend :    VFR   Marginal VFR   IFR   Intensive IFR   Very Intensive IFR
Visi :
Ceiling :
>= 8 km
>= 3000ft
5 to 8 km
1000 to 3000 ft
1500m to 5 km
500 to 1000 ft
800 to 1500m
200 to 500 ft
< 800m
< 200 ft
Symbols :   Thunderstorms  Fog  Heavy snow  Heavy precipitations  Wind > 20 kt
SIGMETs :     Misc.  Thunderstorms  Icing  Turbulence  Mountain Waves  Volcanic Ashes






- Airport Elevation : 348 ft
- IATA code : STN


EGSS - London Stansted

CURRENT METAR :
  • 120820Z VRB03KT 9000 NSC 26/19 Q1014

EXPIRED METARs :
  • 120750Z 14005KT 120V190 7000 NSC 24/18 Q1014
  • 120720Z 13005KT 060V170 8000 NSC 24/18 Q1015
  • 120650Z VRB03KT 9000 NSC 23/17 Q1015
  • 120620Z AUTO 07004KT 360V130 9999 SCT025 SCT030 23/17 Q1014
  • 120550Z AUTO VRB03KT 9999 SCT036/// //////CB 22/17 Q1014

TAF TAF EGSS
Valid from the 12 at 06:00 until the 13 at 12:00 UTC


120459Z 1206/1312 10006KT 6000 FEW045
BECMG 1206/1209 9999
PROB30
TEMPO 1214/1219 3000 +TSGR
PROB30
TEMPO 1307/1312 3000 +TSGR
ATIS : +44 1279 669 325



MET'MAP, your aeronautical weather chart ! - Copyright ORBIFLY December 2007 - Disclaimer

ORBIFLY MET'MAP TEAM :

Programming & Development : Alexandra Zaïnal
Concept & original design : Baudouin d'Aumeries
Assistance for programming : Marc-Olivier Méhu
Technical & hardware support : Manuel Goepfert

Contact : metmap@orbifly.com




SOURCES & CREDITS :

   NOAA